»·PEaware :: N5GL L70-KSNA

N5GL :: L70-KSNA

FLIGHT INFORMATION

Flight Status: Arrived
Operator: Privately registered:
United States
More flights under this callsign
Pilot: Georg L. (13308)
Aircraft: SOCATA TBM-900
(TBM9)
More flights by this aircraft type
Origin: L70 Agua Dulce
United States
Destination: KSNA John Wayne-Orange Co
United States
More flights between these airports :: More routes between these airports
Route: +SLAPP V518 KIMMO V459 SLI
File this flight plan on PilotEdge
Remarks:
Altitude:
(Current/Filed)
15,000ft
Speed:
(Current/Filed)
284kts
Departed: 20-Apr-20 01:14 PM
Arrived: 20-Apr-20 01:44 PM
Distance/Time
Traveled:
55nm/0:30
Distance/Time
To Go:
Arrived

Flight Plot

Page will automatically refresh every two minutes.

Flight plan parsing failed; only flown route is shown


Map Options




Map Legend


Flown Route
Filed Route
Departure Airport
Arrival Airport
Navaid (VOR, NDB)
Fix

Horizontal Profiles

Position Reports

Time Latitude Longitude Heading Altitude Ground
Speed
20-Apr-20 13:00 34.503809 -118.313704 143 2611ft 0kts
20-Apr-20 13:01 34.503809 -118.313704 143 2611ft 0kts
20-Apr-20 13:02 34.503809 -118.313704 143 2611ft 0kts
20-Apr-20 13:03 34.503809 -118.313704 143 2611ft 0kts
20-Apr-20 13:04 34.503809 -118.313704 143 2611ft 0kts
20-Apr-20 13:05 34.503809 -118.313704 143 2611ft 0kts
20-Apr-20 13:06 34.503809 -118.313704 143 2611ft 0kts
20-Apr-20 13:07 34.503809 -118.313704 143 2611ft 0kts
20-Apr-20 13:08 34.503800 -118.313696 140 2611ft 1kts
20-Apr-20 13:09 34.505467 -118.310846 53 2611ft 18kts
20-Apr-20 13:10 34.507748 -118.307186 64 2611ft 0kts
20-Apr-20 13:11 34.507748 -118.307186 64 2611ft 0kts
20-Apr-20 13:12 34.507390 -118.306901 232 2611ft 0kts
20-Apr-20 13:13 34.500169 -118.319208 242 3160ft 117kts
20-Apr-20 13:14 34.493239 -118.361449 262 6036ft 130kts
20-Apr-20 13:15 34.486624 -118.410378 262 8134ft 177kts
20-Apr-20 13:16 34.467943 -118.477461 207 8315ft 239kts
20-Apr-20 13:17 34.422360 -118.436485 133 10599ft 216kts
20-Apr-20 13:18 34.367795 -118.393190 156 11085ft 261kts
20-Apr-20 13:19 34.301035 -118.353753 157 11029ft 269kts
20-Apr-20 13:20 34.233889 -118.314709 157 11016ft 264kts
20-Apr-20 13:21 34.167921 -118.276474 157 11019ft 266kts
20-Apr-20 13:22 34.102291 -118.238479 157 11020ft 267kts
20-Apr-20 13:23 34.036750 -118.200612 157 10674ft 277kts
20-Apr-20 13:24 33.968058 -118.160974 157 9694ft 282kts
20-Apr-20 13:25 33.896632 -118.143093 181 8692ft 273kts
20-Apr-20 13:26 33.821443 -118.142125 181 7692ft 267kts
20-Apr-20 13:27 33.747017 -118.141654 181 6678ft 267kts
20-Apr-20 13:28 33.678117 -118.120571 118 5613ft 276kts
20-Apr-20 13:29 33.710308 -118.046833 41 5009ft 263kts
20-Apr-20 13:30 33.762932 -117.989051 41 5012ft 257kts
20-Apr-20 13:31 33.815484 -117.931231 41 5013ft 254kts
20-Apr-20 13:32 33.866372 -117.874842 41 5011ft 246kts
20-Apr-20 13:33 33.916815 -117.818394 41 5010ft 245kts
20-Apr-20 13:34 33.963989 -117.759180 73 4982ft 248kts
20-Apr-20 13:35 33.922115 -117.718869 181 3690ft 207kts
20-Apr-20 13:36 33.874803 -117.742892 208 3411ft 186kts
20-Apr-20 13:37 33.829679 -117.771250 209 3016ft 175kts
20-Apr-20 13:38 33.791103 -117.795712 208 2505ft 154kts
20-Apr-20 13:39 33.753813 -117.819330 207 1672ft 152kts
20-Apr-20 13:40 33.717777 -117.842170 207 883ft 131kts
20-Apr-20 13:41 33.692169 -117.858405 207 335ft 84kts
20-Apr-20 13:42 33.674008 -117.869896 207 59ft 53kts
20-Apr-20 13:43 33.669034 -117.871418 128 59ft 0kts
20-Apr-20 13:44 33.668124 -117.871924 219 59ft 13kts
20-Apr-20 13:45 33.666038 -117.872808 65 59ft 3kts
20-Apr-20 13:46 33.666057 -117.872779 46 59ft 0kts
20-Apr-20 13:47 33.666057 -117.872779 46 59ft 0kts
20-Apr-20 13:48 33.666056 -117.872780 46 59ft 0kts
20-Apr-20 13:49 33.666056 -117.872780 46 59ft 0kts
20-Apr-20 13:50 33.665805 -117.872567 359 59ft 1kts
20-Apr-20 13:51 33.665705 -117.872588 11 59ft 0kts

Navigation Log

Ident Type
Flight plan parsing failed, navigation log unavailable